Terminal Aerodrome Forecast
Issued by NWS

Home | Current Version | Previous Version | Text Only | Print | Product List | Glossary On
Versions: 1 2 3 4 5 6 7 8 9 10 11 12 13 14 15 16 17 18 19 20 21 22 23 24 25 26 27 28 29 30 31 32 33 34 35 36 37 38 39 40 41 42
000
FTUS41 KRNK 011132
TAFBCB
TAF
KBCB 011132Z 0112/0212 25006KT P6SM -RA SCT040 BKN060
     FM011400 26007KT P6SM BKN045
     FM011900 27009G17KT P6SM SCT050
     FM012300 27005KT P6SM SCT250
     FM020700 24003KT P6SM BKN070 BKN250=

USA.gov is the U.S. government's official web portal to all federal, state and local government web resources and services.